Milford, Utah Weather observations

Data are for observation ending at time listed.
 Day   Time    Ave.   Ave.  Ave.  Vector   Max.   Stn.    Total    Solar   Ave.  
  of    of     Air    Rel.  Wind   Wind    Wind   Baro.  Precip.   Rad.    Soil  
Year   Day     Temp.  Hum.  Speed  Dir.    Gust   Pres.                    Temp. 
2017   (MST)    F      %     mph   deg.    mph     mb.     in.     W/m2     F   
------------------------------------------------------------------------------
  35   22:00   39.4    73    3.2   204      5.6   844.0    0.00       0    40.8
  35   22:10   40.1    72    3.5   209      8.1   844.1    0.00       0    40.8
  35   22:20   38.3    74    2.4   230      5.6   844.2    0.00       0    40.8
  35   22:30   37.1    78    2.3   222      5.9   844.2    0.00       0    40.8
  35   22:40   36.9    78    2.8   216      6.5   844.1    0.00       0    40.8
  35   22:50   36.8    78    3.0   206      5.6   844.1    0.00       0    40.8
  35   23:00   37.2    78    3.2   205      5.7   844.1    0.00       0    40.8
  35   23:10   36.1    80    2.8   209      6.3   844.1    0.00       0    40.8
  35   23:20   36.7    79    3.1   214      6.5   844.1    0.00       0    40.8
  35   23:30   37.2    78    3.4   209      7.0   844.1    0.00       0    40.8
  35   23:40   37.2    78    3.1   223      6.5   844.2    0.00       0    40.8
  35   23:50   36.1    80    2.6   217      6.4   844.3    0.00       0    40.7
  36    0:00   36.4    80    2.3   227      7.2   844.3    0.00       0    40.7
  36    0:10   35.8    81    2.2   226      7.2   844.4    0.00       0    40.7
  36    0:20   35.4    82    1.4   228      4.5   844.4    0.00       0    40.7
  36    0:30   35.1    83    1.5   244      3.7   844.4    0.00       0    40.7
  36    0:40   34.8    83    1.6   232      5.3   844.4    0.00       0    40.7
  36    0:50   34.3    84    1.5   223      3.9   844.3    0.00       0    40.6
  36    1:00   34.1    85    2.3   213      4.6   844.3    0.00       0    40.6
  36    1:10   34.2    85    2.4   224      5.5   844.2    0.00       0    40.6
  36    1:20   34.6    84    2.8   221      6.9   844.2    0.00       0    40.6
  36    1:30   34.8    83    2.5   212      5.8   844.1    0.00       0    40.6
  36    1:40   34.7    83    1.9   219      4.5   844.2    0.00       0    40.6
  36    1:50   34.6    84    1.8   233      4.8   844.3    0.00       0    40.5
  36    2:00   34.9    83    2.0   240      5.6   844.4    0.00       0    40.5
  36    2:10   35.1    83    2.2   235      5.1   844.5    0.00       0    40.5
  36    2:20   35.2    83    2.0   231      4.5   844.5    0.00       0    40.5
  36    2:30   34.8    84    2.2   228      5.0   844.4    0.00       0    40.5
  36    2:40   34.5    84    2.9   229      6.8   844.3    0.00       0    40.5
  36    2:50   34.4    84    3.0   230      6.3   844.2    0.00       0    40.4
  36    3:00   34.1    85    2.9   220      6.8   844.3    0.00       0    40.4
  36    3:10   33.9    86    2.8   212      5.6   844.3    0.00       0    40.4
  36    3:20   34.4    85    3.2   207      6.9   844.2    0.00       0    40.4
  36    3:30   34.9    85    2.9   217      6.8   844.2    0.00       0    40.4
  36    3:40   35.6    83    3.2   231      7.3   844.3    0.00       0    40.3
  36    3:50   35.6    83    2.7   226      7.5   844.2    0.00       0    40.3
  36    4:00   35.4    83    3.1   231      8.8   844.2    0.00       0    40.3
  36    4:10   35.1    83    1.9   219      4.6   844.2    0.00       0    40.3
  36    4:20   34.9    84    1.7   217      4.4   844.1    0.00       0    40.3
  36    4:30   34.8    84    1.6   221      4.5   844.1    0.00       0    40.2
  36    4:40   35.2    84    2.1   237      6.2   844.0    0.00       0    40.2
  36    4:50   35.4    83    1.7   236      5.0   843.9    0.00       0    40.2
  36    5:00   35.2    83    1.3   233      3.8   843.9    0.00       0    40.2
  36    5:10   35.1    83    1.8   240      4.6   843.8    0.00       0    40.2
  36    5:20   35.0    83    1.9   235      4.5   843.7    0.00       0    40.1
  36    5:30   35.4    83    2.2   230      5.5   843.6    0.00       0    40.1
  36    5:40   35.6    83    1.8   229      4.6   843.6    0.00       0    40.1
  36    5:50   35.5    83    1.7   227      4.7   843.6    0.00       0    40.1
  36    6:00   35.4    83    2.1   229      5.3   843.5    0.00       0    40.0
  36    6:10   35.6    82    2.3   223      4.8   843.4    0.00       0    40.0
  36    6:20   35.0    83    2.5   211      6.6   843.4    0.00       0    40.0
  36    6:30   34.4    85    2.4   214      5.3   843.4    0.00       0    40.0
  36    6:40   34.0    84    2.2   216      5.5   843.4    0.00       0    39.9
  36    6:50   34.1    84    2.1   229      6.9   843.4    0.00       0    39.9
  36    7:00   34.0    84    2.4   226      5.8   843.4    0.00       0    39.9
  36    7:10   33.5    85    2.5   228      5.7   843.4    0.00       0    39.9
  36    7:20   33.5    85    2.3   229      5.5   843.4    0.00       0    39.9
  36    7:30   34.0    85    2.6   226      6.4   843.5    0.00       3    39.8
  36    7:40   34.3    84    2.1   220      5.0   843.6    0.00       4    39.8
  36    7:50   34.1    84    2.4   216      5.3   843.7    0.00       9    39.8
  36    8:00   34.7    83    2.3   212      6.4   843.7    0.00      14    39.8
  36    8:10   35.7    82    3.1   202      6.2   843.7    0.00      50    39.7
  36    8:20   36.8    80    3.3   194      8.5   843.8    0.00      83    39.7
  36    8:30   37.6    79    4.4   197      8.3   844.0    0.00     114    39.6
  36    8:40   38.3    78    4.1   198      8.3   844.2    0.00     145    39.5
  36    8:50   38.8    77    4.3   198      9.3   844.4    0.00     166    39.5
  36    9:00   39.4    76    4.5   200      9.0   844.8    0.00     193    39.5
  36    9:10   40.4    74    5.1   201      9.3   845.0    0.00     216    39.5
  36    9:20   41.3    73    4.4   199      8.3   845.2    0.00     243    39.6
  36    9:30   42.0    72    4.8   197     11.0   845.3    0.00     256    39.6
  36    9:40   42.6    70    4.9   196     10.8   845.3    0.00     289    39.5
  36    9:50   43.7    67    4.8   196      9.5   845.5    0.00     323    39.5
  36   10:00   44.5    66    4.9   200      8.3   845.6    0.00     338    39.5
  36   10:10   44.9    65    5.0   200      9.9   846.0    0.00     342    39.5
  36   10:20   45.8    63    5.3   197     12.1   846.1    0.00     341    39.5
  36   10:30   45.9    63    4.8   196      9.9   846.0    0.00     321    39.5
  36   10:40   46.4    63    5.0   195     10.2   846.0    0.00     335    39.5
  36   10:50   45.9    64    4.6   199     10.2   846.0    0.00     250    39.5
  36   11:00   46.3    64    4.3   200      9.7   845.9    0.00     321    39.5
  36   11:10   46.9    62    4.8   207     11.9   845.9    0.00     262    39.5
  36   11:20   46.7    63    4.1   204      7.5   845.9    0.00     240    39.5
  36   11:30   46.7    62    4.1   197      7.6   845.8    0.00     221    39.5
  36   11:40   47.0    62    3.8   203      8.3   845.7    0.00     244    39.5
  36   11:50   47.9    61    4.4   195      9.0   845.7    0.00     260    39.5
  36   12:00   48.7    60    3.9   195      8.6   845.5    0.00     261    39.5
  36   12:10   49.0    58    4.4   199      8.8   845.4    0.00     280    39.6
  36   12:20   49.5    57    4.5   195      9.5   845.4    0.00     319    39.6
  36   12:30   50.5    56    3.5   195      8.9   845.2    0.00     340    39.6
  36   12:40   51.0    55    4.6   186      8.3   845.1    0.00     357    99999.0
  36   12:50   50.8    54    4.6   193     11.4   841.4    0.00     335    38.6
  36   13:00   51.1    53    4.4   189     12.5   843.9    0.00     378    39.2
  36   13:10   51.4    52    5.1   194     11.1   844.5    0.00     392    39.5
  36   13:20   52.0    51    5.2   190     11.5   844.5    0.00     422    39.7
  36   13:30   52.4    50    5.5   196     11.5   844.4    0.00     416    39.7
  36   13:40   52.7    49    5.9   186     12.2   844.3    0.00     382    39.8
  36   13:50   52.8    49    6.6   184     13.2   844.1    0.00     385    39.8
  36   14:00   53.0    46    6.8   185     14.4   843.9    0.00     328    39.8
  36   14:10   52.8    45    6.6   191     12.9   843.6    0.00     334    39.8
  36   14:20   53.0    44    8.3   182     14.0   843.3    0.00     398    39.8
  36   14:30   53.7    43    6.5   191     13.2   843.2    0.00     424    40.0
  36   14:40   53.8    44    7.3   184     13.9   843.1    0.00     459    40.2
  36   14:50   53.2    46    5.8   186     13.4   843.0    0.00     186    40.1
  36   15:00   53.1    46    6.2   187     13.9   842.8    0.00     123    40.2
  36   15:10   53.3    46    5.8   184     11.2   842.7    0.00     139    40.2
  36   15:20   53.3    46    5.6   188     10.9   842.4    0.00     163    40.2
  36   15:30   52.9    46    5.0   187     10.6   842.3    0.00     180    40.3
  36   15:40   52.8    48    3.6   199      7.9   842.1    0.00     162    40.3
  36   15:50   52.4    49    3.4   199      8.4   842.0    0.00     134    40.5
  36   16:00   52.4    50    2.4   208      5.9   841.9    0.00     119    40.5
  36   16:10   52.3    51    2.6   202      6.4   841.8    0.00      90    40.5
  36   16:20   52.0    52    2.6   206      6.7   841.7    0.00      67    40.5
  36   16:30   51.6    53    2.5   199      5.3   841.6    0.00      50    40.6
  36   16:40   51.1    53    2.2   198      4.2   841.4    0.00      43    40.6
  36   16:50   50.8    54    1.5   205      4.6   841.4    0.00      41    40.7
  36   17:00   50.5    55    1.1   205      3.9   841.2    0.00      32    40.7
  36   17:10   50.1    56    0.8   209      3.3   841.2    0.00      27    40.8
  36   17:20   49.7    57    1.4   185      3.2   840.9    0.00      23    40.8
  36   17:30   49.2    57    1.7   193      5.3   840.8    0.00      15    40.8
  36   17:40   49.0    56    2.6   191      6.1   840.7    0.00      12    40.8
  36   17:50   48.5    56    1.8   202      4.1   840.6    0.00       6    40.9
  36   18:00   48.1    51    2.3   202      6.0   840.6    0.00       2    40.9
  36   18:10   47.5    50    1.9   200      4.7   840.6    0.00       0    40.9
  36   18:20   46.6    50    3.0   186      6.8   840.5    0.00       0    41.0
  36   18:30   46.4    48    3.8   177      9.0   840.4    0.00       0    41.0
  36   18:40   45.9    51    3.7   185      6.5   840.5    0.00       0    41.0
  36   18:50   45.3    53    4.7   182      9.1   840.5    0.00       0    41.0
  36   19:00   45.3    54    6.2   180     11.1   840.6    0.00       0    41.0
  36   19:10   45.3    54    6.3   178     11.3   840.6    0.00       0    41.1
  36   19:20   45.4    54    8.4   175     14.5   840.5    0.00       0    41.1
  36   19:30   44.8    57    7.1   177     11.6   840.5    0.00       0    41.2
  36   19:40   44.5    57    7.7   179     12.3   840.4    0.00       0    41.1
  36   19:50   44.6    56    8.4   181     14.0   840.3    0.00       0    41.1
  36   20:00   44.7    57    8.2   180     14.8   840.3    0.00       0    41.2
  36   20:10   45.1    55    7.7   177     13.4   840.2    0.00       0    41.2
  36   20:20   45.1    56    9.0   173     15.4   840.1    0.00       0    41.2
  36   20:30   45.3    55    9.0   176     15.6   840.2    0.00       0    41.2
  36   20:40   45.0    56    7.8   176     14.5   840.1    0.00       0    41.2
  36   20:50   44.8    57    8.5   171     14.6   840.1    0.00       0    41.2
  36   21:00   44.8    57    8.2   177     13.6   840.0    0.00       0    41.2
  36   21:10   44.7    58    8.5   176     14.9   840.1    0.00       0    41.2
  36   21:20   44.6    58    8.6   172     13.3   840.0    0.00       0    41.2
  36   21:30   44.6    58    8.3   175     16.2   840.0    0.00       0    41.2
  36   21:40   44.4    59    8.0   176     16.0   839.9    0.00       0    41.2
  36   21:50   44.0    60    7.6   176     12.7   839.9    0.00       0    41.2

Return to Milford, Utah graphs page.


Western Regional Climate Center,wrcc@dri.edu